2FD4 weather

Port Everglades Heliport
Fort Lauderdale, Florida, United States

Public forecast

Using degrees Fahrenheit for public forecast. Weather courtesy of forecast.io.

METAR (pilot weather report)

Closest report is Fort Lauderdale Hollywood International Airport, 2.5 nm (4.7 km) SW. Retrieved 2019/09/21 04:53 UTC (48 minutes ago):

KFLL 210453Z 08019G26KT 10SM FEW033 SCT065 27/20 A3004 RMK AO2 PK WND 07027/0437 SLP172 T02670200 403060239

TAF (pilot weather forecast)

Forecast is more than 12 hours old.

Closest forecast is Fort Lauderdale Hollywood International Airport, 2.5 nm (4.7 km) SW. Retrieved 2019/09/20 00:40 UTC (1 day ago):

TAF KFLL 202331Z 2100/2206 07015G25KT P6SM VCSH SCT025 BKN035 FM211000 08020G30KT P6SM VCSH SCT025 BKN050